Terminal Aerodrome Forecast
Issued by NWS Sterling, VA

Current Version | Previous Version | Graphics & Text | Print | Product List | Glossary On
Versions: 1 2 3 4 5 6 7 8 9 10 11 12 13 14 15 16 17 18 19 20 21 22 23 24 25 26 27
000
FTUS41 KLWX 231100
TAFDCA
TAF
KDCA 231133Z 2312/2412 19008KT P6SM FEW070 SCT250
     FM231500 21008KT P6SM SCT040 BKN090
     FM232000 22009KT P6SM VCTS SCT040CB BKN080
     FM240000 22006KT P6SM BKN060
     FM240200 30005KT P6SM BKN070=

USA.gov is the U.S. government's official web portal to all federal, state and local government web resources and services.